sensor_id;sensor_type;location;lat;lon;timestamp;pressure;altitude;pressure_sealevel;temperature;humidity
58975;BME280;44751;52.236;5.178;2023-01-19T00:01:22;99784.72;;;1.33;100.00
58975;BME280;44751;52.236;5.178;2023-01-19T00:03:49;99772.13;;;1.35;100.00
58975;BME280;44751;52.236;5.178;2023-01-19T00:06:17;99759.69;;;1.36;100.00
58975;BME280;44751;52.236;5.178;2023-01-19T00:08:46;99750.00;;;1.35;100.00
58975;BME280;44751;52.236;5.178;2023-01-19T00:11:15;99745.13;;;1.40;100.00
58975;BME280;44751;52.236;5.178;2023-01-19T00:14:03;99740.84;;;1.47;100.00
58975;BME280;44751;52.236;5.178;2023-01-19T00:16:59;99750.03;;;1.63;100.00
58975;BME280;44751;52.236;5.178;2023-01-19T00:19:33;99750.81;;;1.73;100.00
58975;BME280;44751;52.236;5.178;2023-01-19T00:22:02;99739.03;;;1.76;100.00
58975;BME280;44751;52.236;5.178;2023-01-19T01:39:41;99761.81;;;2.06;100.00
58975;BME280;44751;52.236;5.178;2023-01-19T01:42:15;99771.69;;;2.14;100.00
58975;BME280;44751;52.236;5.178;2023-01-19T01:44:51;99785.69;;;2.16;100.00
58975;BME280;44751;52.236;5.178;2023-01-19T01:47:34;99796.34;;;2.53;100.00
58975;BME280;44751;52.236;5.178;2023-01-19T01:52:39;99796.63;;;2.68;100.00
58975;BME280;44751;52.236;5.178;2023-01-19T01:55:17;;;;2.80;
58975;BME280;44751;52.236;5.178;2023-01-19T01:57:51;99800.31;;;2.93;100.00
58975;BME280;44751;52.236;5.178;2023-01-19T02:00:24;99798.75;;;3.09;100.00
58975;BME280;44751;52.236;5.178;2023-01-19T02:03:12;99802.72;;;3.05;100.00
58975;BME280;44751;52.236;5.178;2023-01-19T02:05:41;99804.00;;;3.19;100.00
58975;BME280;44751;52.236;5.178;2023-01-19T02:08:17;99796.16;;;3.17;100.00
58975;BME280;44751;52.236;5.178;2023-01-19T02:11:10;99815.91;;;3.06;100.00
58975;BME280;44751;52.236;5.178;2023-01-19T02:13:54;99804.72;;;3.03;100.00
58975;BME280;44751;52.236;5.178;2023-01-19T02:16:27;99808.16;;;2.95;100.00
58975;BME280;44751;52.236;5.178;2023-01-19T02:18:54;99803.28;;;2.90;100.00
58975;BME280;44751;52.236;5.178;2023-01-19T02:21:43;99833.53;;;2.81;100.00
58975;BME280;44751;52.236;5.178;2023-01-19T02:24:13;99839.75;;;2.90;100.00
58975;BME280;44751;52.236;5.178;2023-01-19T02:26:43;99826.16;;;2.75;100.00
58975;BME280;44751;52.236;5.178;2023-01-19T02:29:13;99833.06;;;2.86;100.00
58975;BME280;44751;52.236;5.178;2023-01-19T02:31:49;99827.84;;;2.76;100.00
58975;BME280;44751;52.236;5.178;2023-01-19T02:34:19;99841.97;;;2.76;100.00
58975;BME280;44751;52.236;5.178;2023-01-19T02:36:58;99845.94;;;2.72;100.00
58975;BME280;44751;52.236;5.178;2023-01-19T02:39:34;99844.47;;;2.78;100.00
58975;BME280;44751;52.236;5.178;2023-01-19T02:42:25;99848.06;;;2.68;100.00
58975;BME280;44751;52.236;5.178;2023-01-19T02:45:07;99851.59;;;2.69;100.00
58975;BME280;44751;52.236;5.178;2023-01-19T02:47:53;99859.03;;;2.65;100.00
58975;BME280;44751;52.236;5.178;2023-01-19T10:00:15;100290.69;;;4.78;100.00
58975;BME280;44751;52.236;5.178;2023-01-19T10:02:50;100306.38;;;4.55;100.00
58975;BME280;44751;52.236;5.178;2023-01-19T10:05:46;100297.31;;;4.02;100.00
58975;BME280;44751;52.236;5.178;2023-01-19T10:11:02;100300.91;;;3.64;100.00
58975;BME280;44751;52.236;5.178;2023-01-19T10:13:44;100303.16;;;3.59;100.00
58975;BME280;44751;52.236;5.178;2023-01-19T10:18:59;100308.06;;;3.64;100.00
58975;BME280;44751;52.236;5.178;2023-01-19T10:21:45;100309.28;;;3.69;100.00
58975;BME280;44751;52.236;5.178;2023-01-19T14:30:29;100405.34;;;3.69;100.00
58975;BME280;44751;52.236;5.178;2023-01-19T14:40:47;100414.94;;;3.52;100.00
58975;BME280;44751;52.236;5.178;2023-01-19T14:43:15;100404.28;;;3.32;100.00
58975;BME280;44751;52.236;5.178;2023-01-19T14:46:02;100416.09;;;3.30;100.00
58975;BME280;44751;52.236;5.178;2023-01-19T14:56:52;100410.31;;;3.44;100.00
58975;BME280;44751;52.236;5.178;2023-01-19T15:01:52;100418.44;;;3.53;100.00
58975;BME280;44751;52.236;5.178;2023-01-19T15:04:19;100412.72;;;3.38;100.00
58975;BME280;44751;52.236;5.178;2023-01-19T15:12:05;100423.56;;;3.16;100.00
58975;BME280;44751;52.236;5.178;2023-01-19T15:14:44;100427.47;;;3.12;100.00
58975;BME280;44751;52.236;5.178;2023-01-19T15:17:18;100425.66;;;3.03;100.00
58975;BME280;44751;52.236;5.178;2023-01-19T15:20:30;100437.28;;;3.02;100.00
58975;BME280;44751;52.236;5.178;2023-01-19T15:22:58;100431.66;;;2.85;100.00
58975;BME280;44751;52.236;5.178;2023-01-19T17:53:13;100541.84;;;0.59;100.00
58975;BME280;44751;52.236;5.178;2023-01-19T17:55:40;100544.38;;;0.61;100.00
58975;BME280;44751;52.236;5.178;2023-01-19T17:58:07;100544.72;;;0.68;100.00
58975;BME280;44751;52.236;5.178;2023-01-19T18:06:12;100544.25;;;0.85;100.00
58975;BME280;44751;52.236;5.178;2023-01-19T18:14:03;100543.44;;;1.18;100.00
58975;BME280;44751;52.236;5.178;2023-01-19T18:16:32;100546.84;;;1.08;100.00
58975;BME280;44751;52.236;5.178;2023-01-19T18:19:03;100543.47;;;1.06;100.00
58975;BME280;44751;52.236;5.178;2023-01-19T18:21:43;100550.19;;;1.22;100.00
58975;BME280;44751;52.236;5.178;2023-01-19T18:24:10;100545.47;;;1.25;100.00
58975;BME280;44751;52.236;5.178;2023-01-19T18:26:39;100550.06;;;1.23;100.00
58975;BME280;44751;52.236;5.178;2023-01-19T18:31:38;100554.53;;;1.23;100.00
58975;BME280;44751;52.236;5.178;2023-01-19T18:34:07;100558.16;;;1.22;100.00
58975;BME280;44751;52.236;5.178;2023-01-19T18:36:34;100568.91;;;1.20;100.00
58975;BME280;44751;52.236;5.178;2023-01-19T18:39:01;100563.47;;;1.22;100.00
58975;BME280;44751;52.236;5.178;2023-01-19T18:41:35;100569.25;;;1.27;100.00
58975;BME280;44751;52.236;5.178;2023-01-19T18:44:09;100589.66;;;1.26;100.00
58975;BME280;44751;52.236;5.178;2023-01-19T18:46:39;100581.09;;;1.23;100.00
58975;BME280;44751;52.236;5.178;2023-01-19T18:49:12;100590.72;;;1.35;100.00
58975;BME280;44751;52.236;5.178;2023-01-19T18:51:39;100617.09;;;1.27;100.00
58975;BME280;44751;52.236;5.178;2023-01-19T18:54:08;100618.56;;;1.20;100.00
58975;BME280;44751;52.236;5.178;2023-01-19T18:56:38;100613.13;;;1.21;100.00
58975;BME280;44751;52.236;5.178;2023-01-19T18:59:08;100621.66;;;1.36;100.00
58975;BME280;44751;52.236;5.178;2023-01-19T19:01:37;100625.53;;;1.32;100.00
58975;BME280;44751;52.236;5.178;2023-01-19T19:04:04;100627.09;;;1.35;100.00
58975;BME280;44751;52.236;5.178;2023-01-19T19:06:35;100623.00;;;1.31;100.00
58975;BME280;44751;52.236;5.178;2023-01-19T19:09:04;100628.19;;;1.32;100.00
58975;BME280;44751;52.236;5.178;2023-01-19T19:11:33;100634.00;;;1.37;100.00
58975;BME280;44751;52.236;5.178;2023-01-19T19:14:01;100634.94;;;1.36;100.00
58975;BME280;44751;52.236;5.178;2023-01-19T19:16:29;100651.00;;;1.35;100.00
58975;BME280;44751;52.236;5.178;2023-01-19T19:18:59;100643.44;;;1.30;100.00
58975;BME280;44751;52.236;5.178;2023-01-19T19:21:26;100651.00;;;1.35;100.00
58975;BME280;44751;52.236;5.178;2023-01-19T19:23:55;100650.19;;;1.34;100.00
58975;BME280;44751;52.236;5.178;2023-01-19T19:26:23;100647.19;;;1.16;100.00
58975;BME280;44751;52.236;5.178;2023-01-19T19:28:50;100660.72;;;1.01;100.00
58975;BME280;44751;52.236;5.178;2023-01-19T19:31:19;100660.38;;;1.06;100.00
58975;BME280;44751;52.236;5.178;2023-01-19T19:33:46;100663.50;;;0.88;100.00
58975;BME280;44751;52.236;5.178;2023-01-19T19:36:15;100663.03;;;0.83;100.00
58975;BME280;44751;52.236;5.178;2023-01-19T19:38:41;100644.06;;;0.65;100.00
58975;BME280;44751;52.236;5.178;2023-01-19T19:41:13;100647.91;;;0.61;100.00
58975;BME280;44751;52.236;5.178;2023-01-19T19:43:40;100642.38;;;0.53;100.00
58975;BME280;44751;52.236;5.178;2023-01-19T19:46:09;100650.09;;;0.56;100.00
58975;BME280;44751;52.236;5.178;2023-01-19T19:48:37;100641.88;;;0.47;100.00
58975;BME280;44751;52.236;5.178;2023-01-19T19:51:10;100655.63;;;0.53;100.00
58975;BME280;44751;52.236;5.178;2023-01-19T19:53:37;100659.03;;;0.55;100.00
58975;BME280;44751;52.236;5.178;2023-01-19T19:56:06;100669.66;;;0.55;100.00
58975;BME280;44751;52.236;5.178;2023-01-19T19:58:33;100683.88;;;0.54;100.00
58975;BME280;44751;52.236;5.178;2023-01-19T20:01:06;100686.63;;;0.52;100.00
58975;BME280;44751;52.236;5.178;2023-01-19T20:03:36;100678.56;;;0.54;100.00
58975;BME280;44751;52.236;5.178;2023-01-19T20:06:08;100680.63;;;0.50;100.00
58975;BME280;44751;52.236;5.178;2023-01-19T20:08:35;100679.88;;;0.48;100.00
58975;BME280;44751;52.236;5.178;2023-01-19T20:11:03;100691.47;;;0.58;100.00
58975;BME280;44751;52.236;5.178;2023-01-19T20:13:31;100690.63;;;0.58;100.00
58975;BME280;44751;52.236;5.178;2023-01-19T20:16:02;100691.47;;;0.58;100.00
58975;BME280;44751;52.236;5.178;2023-01-19T20:18:30;100695.00;;;0.59;100.00
58975;BME280;44751;52.236;5.178;2023-01-19T20:20:58;100698.97;;;0.53;100.00
58975;BME280;44751;52.236;5.178;2023-01-19T20:23:25;100693.13;;;0.48;100.00
58975;BME280;44751;52.236;5.178;2023-01-19T20:25:54;100690.16;;;0.53;100.00
58975;BME280;44751;52.236;5.178;2023-01-19T20:28:20;100695.13;;;0.57;100.00
58975;BME280;44751;52.236;5.178;2023-01-19T20:30:47;100681.69;;;0.47;100.00
58975;BME280;44751;52.236;5.178;2023-01-19T20:33:14;100698.09;;;0.53;100.00
58975;BME280;44751;52.236;5.178;2023-01-19T20:35:40;100694.09;;;0.47;100.00
58975;BME280;44751;52.236;5.178;2023-01-19T20:38:07;100702.44;;;0.54;100.00
58975;BME280;44751;52.236;5.178;2023-01-19T20:40:33;100701.50;;;0.55;100.00
58975;BME280;44751;52.236;5.178;2023-01-19T20:43:00;100693.50;;;0.43;100.00
58975;BME280;44751;52.236;5.178;2023-01-19T20:45:26;100695.34;;;0.54;100.00
58975;BME280;44751;52.236;5.178;2023-01-19T20:47:53;100710.06;;;0.58;100.00
58975;BME280;44751;52.236;5.178;2023-01-19T20:50:19;100709.47;;;0.55;100.00
58975;BME280;44751;52.236;5.178;2023-01-19T20:52:49;100710.41;;;0.54;100.00
58975;BME280;44751;52.236;5.178;2023-01-19T20:55:15;100708.09;;;0.37;100.00
58975;BME280;44751;52.236;5.178;2023-01-19T20:57:42;100722.06;;;0.40;100.00
58975;BME280;44751;52.236;5.178;2023-01-19T21:00:10;100730.66;;;0.43;100.00
58975;BME280;44751;52.236;5.178;2023-01-19T21:02:36;100735.94;;;0.32;100.00
58975;BME280;44751;52.236;5.178;2023-01-19T21:05:06;100726.47;;;0.16;100.00
58975;BME280;44751;52.236;5.178;2023-01-19T21:07:33;100732.97;;;0.12;100.00
58975;BME280;44751;52.236;5.178;2023-01-19T21:09:59;100731.16;;;0.12;100.00
58975;BME280;44751;52.236;5.178;2023-01-19T21:12:26;100727.31;;;0.17;100.00
58975;BME280;44751;52.236;5.178;2023-01-19T21:14:55;100727.75;;;0.10;100.00
58975;BME280;44751;52.236;5.178;2023-01-19T21:17:24;100719.31;;;0.05;100.00
58975;BME280;44751;52.236;5.178;2023-01-19T21:19:51;100716.03;;;0.02;100.00
58975;BME280;44751;52.236;5.178;2023-01-19T21:22:17;100733.00;;;-0.01;100.00
58975;BME280;44751;52.236;5.178;2023-01-19T21:24:46;100727.09;;;-0.05;100.00
58975;BME280;44751;52.236;5.178;2023-01-19T21:27:13;100727.94;;;-0.04;100.00
58975;BME280;44751;52.236;5.178;2023-01-19T21:29:42;100733.97;;;-0.02;100.00
58975;BME280;44751;52.236;5.178;2023-01-19T21:32:09;100735.50;;;-0.11;100.00
58975;BME280;44751;52.236;5.178;2023-01-19T21:34:35;100749.50;;;-0.09;100.00
58975;BME280;44751;52.236;5.178;2023-01-19T21:37:02;100748.03;;;-0.13;100.00
58975;BME280;44751;52.236;5.178;2023-01-19T21:39:29;100757.16;;;-0.17;100.00
58975;BME280;44751;52.236;5.178;2023-01-19T21:41:55;100761.28;;;-0.13;100.00
58975;BME280;44751;52.236;5.178;2023-01-19T21:44:22;100772.72;;;-0.13;100.00
58975;BME280;44751;52.236;5.178;2023-01-19T21:46:48;100783.22;;;-0.11;100.00
58975;BME280;44751;52.236;5.178;2023-01-19T21:49:17;100783.59;;;-0.16;100.00
58975;BME280;44751;52.236;5.178;2023-01-19T21:51:44;100780.19;;;-0.18;100.00
58975;BME280;44751;52.236;5.178;2023-01-19T21:54:12;100779.56;;;-0.21;100.00
58975;BME280;44751;52.236;5.178;2023-01-19T21:56:38;100788.78;;;-0.14;100.00
58975;BME280;44751;52.236;5.178;2023-01-19T21:59:08;100794.03;;;-0.01;100.00
58975;BME280;44751;52.236;5.178;2023-01-19T22:01:35;100792.03;;;-0.10;100.00
58975;BME280;44751;52.236;5.178;2023-01-19T22:04:02;100771.88;;;0.00;100.00
58975;BME280;44751;52.236;5.178;2023-01-19T22:06:29;100783.09;;;0.04;100.00
58975;BME280;44751;52.236;5.178;2023-01-19T22:08:55;100795.06;;;0.09;100.00
58975;BME280;44751;52.236;5.178;2023-01-19T22:11:25;100794.41;;;0.06;100.00
58975;BME280;44751;52.236;5.178;2023-01-19T22:13:52;100785.94;;;0.01;100.00
58975;BME280;44751;52.236;5.178;2023-01-19T22:16:20;100788.22;;;-0.06;100.00
58975;BME280;44751;52.236;5.178;2023-01-19T22:18:52;100784.94;;;-0.10;100.00
58975;BME280;44751;52.236;5.178;2023-01-19T22:21:28;100791.94;;;-0.09;100.00
58975;BME280;44751;52.236;5.178;2023-01-19T22:23:56;100798.38;;;0.00;100.00
58975;BME280;44751;52.236;5.178;2023-01-19T22:26:24;100796.56;;;0.01;100.00
58975;BME280;44751;52.236;5.178;2023-01-19T22:28:52;100792.94;;;0.02;100.00
58975;BME280;44751;52.236;5.178;2023-01-19T22:31:20;100795.16;;;0.08;100.00
58975;BME280;44751;52.236;5.178;2023-01-19T22:33:46;100800.84;;;0.15;100.00
58975;BME280;44751;52.236;5.178;2023-01-19T22:36:17;100793.97;;;0.12;100.00
58975;BME280;44751;52.236;5.178;2023-01-19T22:38:56;100801.59;;;0.17;100.00
58975;BME280;44751;52.236;5.178;2023-01-19T22:41:23;100805.16;;;0.04;100.00
58975;BME280;44751;52.236;5.178;2023-01-19T22:43:55;100803.97;;;0.08;100.00
58975;BME280;44751;52.236;5.178;2023-01-19T22:46:27;100806.50;;;0.10;100.00
58975;BME280;44751;52.236;5.178;2023-01-19T22:48:54;100803.34;;;0.05;100.00
58975;BME280;44751;52.236;5.178;2023-01-19T22:51:22;100809.09;;;-0.02;100.00
58975;BME280;44751;52.236;5.178;2023-01-19T22:53:49;100806.84;;;0.05;100.00
58975;BME280;44751;52.236;5.178;2023-01-19T22:56:26;100818.75;;;-0.01;100.00
58975;BME280;44751;52.236;5.178;2023-01-19T22:58:53;100828.59;;;-0.03;100.00
58975;BME280;44751;52.236;5.178;2023-01-19T23:01:22;100824.19;;;-0.15;100.00
58975;BME280;44751;52.236;5.178;2023-01-19T23:03:49;100825.25;;;-0.18;100.00
58975;BME280;44751;52.236;5.178;2023-01-19T23:06:24;100830.06;;;-0.23;100.00
58975;BME280;44751;52.236;5.178;2023-01-19T23:08:53;100826.66;;;-0.25;100.00
58975;BME280;44751;52.236;5.178;2023-01-19T23:11:22;100824.94;;;-0.13;100.00
58975;BME280;44751;52.236;5.178;2023-01-19T23:13:49;100825.03;;;-0.15;100.00
58975;BME280;44751;52.236;5.178;2023-01-19T23:16:20;100820.72;;;-0.16;100.00
58975;BME280;44751;52.236;5.178;2023-01-19T23:18:50;100823.97;;;-0.12;100.00
58975;BME280;44751;52.236;5.178;2023-01-19T23:21:18;100818.28;;;-0.19;100.00
58975;BME280;44751;52.236;5.178;2023-01-19T23:23:45;100818.16;;;-0.17;100.00
58975;BME280;44751;52.236;5.178;2023-01-19T23:26:19;100818.59;;;-0.23;100.00
58975;BME280;44751;52.236;5.178;2023-01-19T23:28:46;100811.28;;;-0.33;100.00
58975;BME280;44751;52.236;5.178;2023-01-19T23:33:47;100812.38;;;-0.35;100.00
58975;BME280;44751;52.236;5.178;2023-01-19T23:36:15;100826.44;;;-0.35;100.00
58975;BME280;44751;52.236;5.178;2023-01-19T23:38:47;100820.94;;;-0.32;100.00
58975;BME280;44751;52.236;5.178;2023-01-19T23:41:14;100826.56;;;-0.36;100.00
58975;BME280;44751;52.236;5.178;2023-01-19T23:43:40;100829.97;;;-0.34;100.00
58975;BME280;44751;52.236;5.178;2023-01-19T23:46:09;100842.69;;;-0.40;100.00
58975;BME280;44751;52.236;5.178;2023-01-19T23:48:36;100842.91;;;-0.30;100.00
58975;BME280;44751;52.236;5.178;2023-01-19T23:53:33;100851.66;;;-0.16;100.00
58975;BME280;44751;52.236;5.178;2023-01-19T23:58:36;100850.91;;;-0.05;100.00
